Time;durP1;ratioP1;P1;durP2;ratioP2;P2;SDS_P1;SDS_P2;PMS_P1;PMS_P2;Temp;Humidity;BMP_temperature;BMP_pressure;BME280_temperature;BME280_humidity;BME280_pressure;Samples;Min_cycle;Max_cycle;Signal;HPM_P1;HPM_P2
2022/05/17 00:00:46;;;;;;;3.37;3.00;;;;;;;21.12;44.92;94901.56;5090982;28;20657;-83
2022/05/17 00:03:13;;;;;;;4.13;2.87;;;;;;;21.08;44.95;94899.56;5074578;28;20545;-83
2022/05/17 00:05:41;;;;;;;5.23;3.20;;;;;;;20.87;44.90;94869.31;5070585;28;20871;-82
2022/05/17 00:08:09;;;;;;;2.93;2.60;;;;;;;21.03;44.89;94902.75;5072935;28;20190;-83
2022/05/17 00:10:36;;;;;;;3.23;2.93;;;;;;;21.02;45.16;94895.94;5090853;28;20645;-83
2022/05/17 00:13:03;;;;;;;7.53;3.50;;;;;;;21.00;45.26;94892.75;5091165;28;20189;-83
2022/05/17 00:15:30;;;;;;;3.77;2.90;;;;;;;20.97;45.21;94893.91;5094089;28;20190;-83
2022/05/17 00:17:57;;;;;;;4.27;3.13;;;;;;;20.80;45.26;94872.69;5096816;28;20197;-84
2022/05/17 00:20:25;;;;;;;4.53;3.10;;;;;;;20.92;45.44;94895.50;5086421;28;20201;-82
2022/05/17 00:22:54;;;;;;;6.03;3.33;;;;;;;20.90;45.35;94894.91;5075804;28;20198;-82
2022/05/17 00:25:23;;;;;;;4.50;2.70;;;;;;;20.87;45.65;94893.50;5070326;28;20218;-85
2022/05/17 00:27:50;;;;;;;4.70;3.03;;;;;;;20.85;45.55;94898.09;5070533;28;20186;-83
2022/05/17 00:30:17;;;;;;;4.13;2.70;;;;;;;20.86;45.69;94898.91;5071177;28;20189;-81
2022/05/17 00:32:44;;;;;;;2.97;2.50;;;;;;;20.82;45.76;94897.69;5070168;28;20189;-81
2022/05/17 00:35:11;;;;;;;3.00;2.80;;;;;;;20.46;45.76;94844.16;5070187;28;20205;-82
2022/05/17 00:37:38;;;;;;;4.77;2.90;;;;;;;20.76;45.67;94900.06;5070204;28;20550;-84
2022/05/17 00:40:09;;;;;;;3.97;3.00;;;;;;;20.63;45.74;94875.81;5070745;28;20177;-83
2022/05/17 00:42:36;;;;;;;5.23;2.77;;;;;;;20.60;45.81;94884.84;5070878;28;20809;-82
2022/05/17 00:45:05;;;;;;;3.07;2.80;;;;;;;20.62;45.82;94885.44;5071429;28;20224;-82
2022/05/17 00:47:37;;;;;;;3.90;2.80;;;;;;;20.67;45.82;94893.44;5070147;28;20190;-81
2022/05/17 00:50:07;;;;;;;5.53;2.80;;;;;;;20.15;45.88;94821.28;5069737;28;20190;-81
2022/05/17 00:52:39;;;;;;;5.83;3.17;;;;;;;20.61;46.00;94889.03;5070961;28;20205;-82
2022/05/17 00:55:11;;;;;;;3.83;2.70;;;;;;;20.50;45.96;94879.97;5069501;28;20205;-81
2022/05/17 00:57:45;;;;;;;6.07;3.20;;;;;;;20.07;46.02;94816.25;5069558;28;20231;-82
2022/05/17 01:00:16;;;;;;;3.40;3.10;;;;;;;19.91;46.04;94786.22;5069210;28;20200;-83
2022/05/17 01:02:46;;;;;;;5.23;2.93;;;;;;;20.43;46.07;94876.53;5071433;28;20190;-81
2022/05/17 01:05:14;;;;;;;4.80;3.47;;;;;;;20.44;46.01;94875.53;5069042;28;20569;-82
2022/05/17 01:07:44;;;;;;;3.40;2.43;;;;;;;20.38;46.06;94868.53;5069345;28;20727;-82
2022/05/17 01:10:13;;;;;;;4.73;3.57;;;;;;;20.38;46.20;94868.53;5069293;28;20197;-80
2022/05/17 01:12:41;;;;;;;3.67;3.03;;;;;;;20.43;46.16;94876.53;5070491;28;20946;-82
2022/05/17 01:15:11;;;;;;;5.60;3.20;;;;;;;20.18;46.18;94839.88;5069206;28;20193;-82
2022/05/17 01:17:41;;;;;;;3.27;2.83;;;;;;;20.39;46.34;94874.53;5069472;28;20198;-80
2022/05/17 01:20:11;;;;;;;3.20;2.90;;;;;;;19.89;46.42;94796.00;5070260;28;20606;-82
2022/05/17 01:22:39;;;;;;;5.47;3.50;;;;;;;20.36;46.42;94872.31;5069688;28;20256;-81
2022/05/17 01:25:07;;;;;;;3.00;2.73;;;;;;;20.31;46.58;94865.09;5069057;28;20593;-80
2022/05/17 01:27:38;;;;;;;4.73;3.30;;;;;;;20.30;46.64;94866.09;5069467;28;20231;-80
2022/05/17 01:30:06;;;;;;;6.20;3.23;;;;;;;20.27;46.64;94872.47;5069837;28;20191;-82
2022/05/17 01:32:34;;;;;;;3.37;2.87;;;;;;;20.26;46.68;94868.28;5069355;28;20281;-81
2022/05/17 01:35:01;;;;;;;4.23;2.90;;;;;;;20.23;46.84;94871.25;5072242;28;20197;-81
2022/05/17 01:37:28;;;;;;;7.23;3.23;;;;;;;19.70;46.88;94793.09;5077306;28;20186;-82
2022/05/17 01:39:56;;;;;;;4.50;3.30;;;;;;;20.18;46.80;94872.81;5093550;28;20194;-83
2022/05/17 01:42:23;;;;;;;4.27;2.90;;;;;;;20.15;47.00;94868.81;5093770;28;20208;-81
2022/05/17 01:44:50;;;;;;;4.37;3.10;;;;;;;20.14;47.00;94877.59;5093640;28;20228;-82
2022/05/17 01:47:17;;;;;;;3.10;2.90;;;;;;;20.13;47.11;94873.41;5093316;28;20193;-82
2022/05/17 01:49:44;;;;;;;3.40;2.87;;;;;;;19.08;47.12;94710.88;5086336;28;20194;-81
2022/05/17 01:52:11;;;;;;;3.87;3.10;;;;;;;20.08;47.13;94870.59;5074686;28;20194;-81
2022/05/17 01:54:38;;;;;;;7.63;3.23;;;;;;;19.97;47.36;94863.31;5076773;28;20182;-84
2022/05/17 01:57:07;;;;;;;3.07;2.77;;;;;;;19.71;47.31;94825.84;5072842;28;20223;-85
2022/05/17 01:59:34;;;;;;;5.20;3.20;;;;;;;19.74;47.21;94838.44;5073198;28;20676;-82
2022/05/17 02:02:02;;;;;;;5.87;3.43;;;;;;;19.85;47.55;94849.28;5077289;28;20178;-82
2022/05/17 02:04:29;;;;;;;5.27;3.17;;;;;;;19.98;47.42;94875.31;5093315;28;20216;-82
2022/05/17 02:06:56;;;;;;;6.20;3.13;;;;;;;19.11;47.59;94749.41;5093096;28;20200;-82
2022/05/17 02:09:23;;;;;;;5.03;3.20;;;;;;;19.94;47.67;94879.28;5077846;28;20213;-82
2022/05/17 02:11:50;;;;;;;4.63;3.20;;;;;;;19.85;47.83;94868.25;5073347;28;20189;-83
2022/05/17 02:14:18;;;;;;;6.10;3.20;;;;;;;19.89;47.78;94872.06;5072846;28;20198;-83
2022/05/17 02:16:45;;;;;;;3.87;3.57;;;;;;;19.65;47.81;94836.19;5073306;28;20186;-83
2022/05/17 02:19:12;;;;;;;3.90;3.17;;;;;;;19.85;47.91;94878.63;5072256;28;20190;-81
2022/05/17 02:21:39;;;;;;;6.50;3.40;;;;;;;19.82;48.09;94886.81;5085870;28;20545;-81
2022/05/17 02:24:07;;;;;;;7.67;3.50;;;;;;;19.16;48.32;94780.75;5092350;28;20186;-86
2022/05/17 02:26:34;;;;;;;6.00;3.40;;;;;;;19.44;48.16;94837.03;5093457;28;20617;-84
2022/05/17 02:29:01;;;;;;;8.83;3.13;;;;;;;19.66;48.28;94867.13;5092543;28;20182;-83
2022/05/17 02:31:30;;;;;;;3.37;3.07;;;;;;;19.73;48.39;94883.56;5092175;28;20186;-84
2022/05/17 02:33:57;;;;;;;7.07;3.23;;;;;;;19.25;48.17;94804.75;5071985;28;20565;-83
2022/05/17 02:36:24;;;;;;;6.47;3.60;;;;;;;18.99;48.24;94776.81;5072533;28;20193;-81
2022/05/17 02:38:51;;;;;;;6.83;3.30;;;;;;;19.68;48.56;94875.53;5072847;28;20187;-83
2022/05/17 02:41:19;;;;;;;4.23;2.93;;;;;;;19.52;48.40;94860.22;5072907;28;20197;-83
2022/05/17 02:43:46;;;;;;;10.20;3.50;;;;;;;19.34;48.57;94826.94;5075630;28;20214;-83
2022/05/17 02:46:13;;;;;;;4.90;3.33;;;;;;;18.74;48.58;94732.41;5088591;28;20237;-82
2022/05/17 02:48:42;;;;;;;8.73;3.40;;;;;;;19.61;48.87;94869.50;5073033;28;20264;-85
2022/05/17 02:51:11;;;;;;;4.73;3.30;;;;;;;19.61;48.83;94876.47;5073000;28;20268;-83
2022/05/17 02:53:37;;;;;;;4.13;3.67;;;;;;;19.39;48.77;94853.16;5072244;28;20734;-84
2022/05/17 02:56:05;;;;;;;3.97;3.40;;;;;;;19.55;48.77;94880.59;5071836;28;20230;-83
2022/05/17 02:58:32;;;;;;;3.70;3.40;;;;;;;18.97;48.64;94781.41;5071644;28;20657;-82
2022/05/17 03:00:59;;;;;;;3.70;3.40;;;;;;;19.53;48.96;94879.97;5071648;28;20719;-82
2022/05/17 03:03:27;;;;;;;5.73;3.37;;;;;;;19.52;48.96;94878.38;5071853;28;20270;-83
2022/05/17 03:05:55;;;;;;;4.20;3.60;;;;;;;19.36;49.30;94855.31;5071476;28;20356;-82
2022/05/17 03:08:22;;;;;;;6.03;3.60;;;;;;;19.48;49.25;94871.97;5071555;28;20201;-82
2022/05/17 03:10:49;;;;;;;4.03;3.30;;;;;;;19.43;49.15;94875.13;5071455;28;20195;-82
2022/05/17 03:13:17;;;;;;;3.80;3.30;;;;;;;19.47;49.29;94880.72;5071788;28;20190;-83
2022/05/17 03:15:44;;;;;;;4.63;3.50;;;;;;;18.84;49.25;94781.28;5071096;28;20190;-81
2022/05/17 03:18:11;;;;;;;6.27;3.83;;;;;;;19.45;49.43;94882.72;5091446;28;20668;-81
2022/05/17 03:20:37;;;;;;;4.53;3.73;;;;;;;18.99;49.65;94803.53;5091174;28;20198;-83
2022/05/17 03:23:06;;;;;;;6.80;3.60;;;;;;;19.13;49.65;94834.75;5092076;28;20205;-83
2022/05/17 03:25:33;;;;;;;6.23;3.53;;;;;;;19.46;49.65;94879.91;5092543;28;20218;-82
2022/05/17 03:27:59;;;;;;;4.63;3.50;;;;;;;19.46;49.74;94879.13;5093997;28;20204;-81
2022/05/17 03:30:27;;;;;;;7.83;3.60;;;;;;;18.93;49.79;94796.53;5091032;28;20193;-82
2022/05/17 03:32:55;;;;;;;3.73;3.43;;;;;;;18.52;49.79;94740.16;5077203;28;20190;-81
2022/05/17 03:35:22;;;;;;;6.20;3.87;;;;;;;19.10;49.93;94822.19;5071790;28;20179;-82
2022/05/17 03:37:49;;;;;;;7.13;3.80;;;;;;;19.49;50.13;94887.34;5070927;28;20585;-80
2022/05/17 03:40:18;;;;;;;9.50;3.77;;;;;;;19.51;50.17;94887.94;5091065;28;20186;-80
2022/05/17 03:42:45;;;;;;;7.20;4.10;;;;;;;19.50;50.11;94888.94;5091500;28;20186;-82
2022/05/17 03:45:13;;;;;;;3.83;3.37;;;;;;;19.51;50.27;94887.94;5091333;28;20262;-83
2022/05/17 03:47:40;;;;;;;6.17;4.07;;;;;;;18.82;50.27;94778.06;5095957;28;20186;-81
2022/05/17 03:50:08;;;;;;;6.23;3.90;;;;;;;19.38;50.15;94863.69;5091827;28;20200;-79
2022/05/17 03:52:36;;;;;;;6.77;3.70;;;;;;;19.12;50.31;94822.78;5070083;28;20187;-80
2022/05/17 03:55:05;;;;;;;5.77;3.67;;;;;;;19.58;50.26;94893.19;5070909;28;20197;-82
2022/05/17 03:57:33;;;;;;;5.37;3.10;;;;;;;19.61;50.37;94900.63;5078324;28;20723;-81
2022/05/17 04:00:00;;;;;;;5.93;3.63;;;;;;;19.34;50.21;94849.50;5097133;28;20194;-83
2022/05/17 04:02:28;;;;;;;5.20;3.60;;;;;;;19.40;50.38;94856.53;5096279;28;20203;-81
2022/05/17 04:04:55;;;;;;;6.33;3.67;;;;;;;18.42;50.25;94700.00;5090540;28;20221;-82
2022/05/17 04:07:22;;;;;;;6.77;3.97;;;;;;;19.57;50.19;94867.44;5090620;28;20199;-81
2022/05/17 04:09:49;;;;;;;6.33;3.97;;;;;;;19.74;50.26;94892.94;5089234;28;20197;-80
2022/05/17 04:12:16;;;;;;;5.80;3.50;;;;;;;19.78;50.20;94894.16;5090174;28;20583;-80
2022/05/17 04:14:45;;;;;;;5.10;3.60;;;;;;;19.82;50.08;94889.41;5090477;28;20194;-82
2022/05/17 04:17:11;;;;;;;4.30;3.87;;;;;;;19.86;50.27;94890.63;5089492;28;20186;-81
2022/05/17 04:19:39;;;;;;;8.10;4.13;;;;;;;19.57;50.23;94837.09;5090102;28;20209;-82
2022/05/17 04:22:09;;;;;;;9.03;4.37;;;;;;;19.93;50.30;94899.25;5075077;28;20190;-82
2022/05/17 04:24:35;;;;;;;9.57;3.87;;;;;;;19.95;50.44;94902.47;5069936;28;20190;-81
2022/05/17 04:27:03;;;;;;;6.20;4.03;;;;;;;20.00;50.18;94905.28;5070370;28;20544;-83
2022/05/17 04:29:30;;;;;;;5.13;3.80;;;;;;;20.04;50.24;94906.50;5069654;28;20183;-81
2022/05/17 04:31:58;;;;;;;7.67;4.47;;;;;;;19.96;49.95;94890.28;5074821;28;20188;-83
2022/05/17 04:34:25;;;;;;;7.43;4.10;;;;;;;19.52;49.92;94816.94;5085319;28;20203;-81
2022/05/17 04:36:52;;;;;;;6.37;4.83;;;;;;;19.96;49.86;94880.69;5090821;28;20197;-80
2022/05/17 04:39:19;;;;;;;10.00;2.90;;;;;;;20.48;81.37;94917.56;5089991;28;20621;-80
2022/05/17 04:41:46;;;;;;;18.60;3.27;;;;;;;20.79;85.40;94919.66;5090291;28;20217;-78
2022/05/17 04:44:13;;;;;;;7.33;3.47;;;;;;;21.07;81.88;94913.53;5090218;28;20198;-77
2022/05/17 04:46:40;;;;;;;14.23;3.13;;;;;;;21.34;80.88;94911.84;5087963;28;20604;-80
2022/05/17 04:49:08;;;;;;;6.93;3.57;;;;;;;21.65;78.57;94906.03;5090680;28;20196;-75
2022/05/17 04:51:35;;;;;;;12.97;3.40;;;;;;;21.88;74.50;94916.03;5094878;28;20204;-78
2022/05/17 04:54:02;;;;;;;9.75;4.35;;;;;;;21.50;73.40;94820.34;5100655;28;20185;-78
2022/05/17 04:56:30;;;;;;;9.00;4.50;;;;;;;22.31;72.60;94905.16;5096570;28;20226;-80
2022/05/17 04:58:56;;;;;;;12.88;6.05;;;;;;;22.53;70.18;94914.28;5083395;28;20178;-78
2022/05/17 05:01:24;;;;;;;14.27;5.50;;;;;;;22.84;68.99;94910.16;5074818;28;20671;-78
2022/05/17 05:03:51;;;;;;;9.55;4.68;;;;;;;22.93;67.92;94868.03;5090309;28;20545;-81
2022/05/17 05:06:19;;;;;;;9.05;4.72;;;;;;;23.28;66.04;94863.16;5090428;28;20225;-80
2022/05/17 05:08:46;;;;;;;8.90;3.90;;;;;;;23.98;64.50;94906.59;5090365;28;20684;-79
2022/05/17 05:11:14;;;;;;;7.13;3.80;;;;;;;24.45;62.14;94904.34;5077822;28;20198;-79
2022/05/17 05:13:41;;;;;;;8.55;3.95;;;;;;;24.62;60.37;94855.66;5075190;28;20186;-84
2022/05/17 05:16:11;;;;;;;12.57;3.70;;;;;;;24.97;55.46;94823.59;5076814;28;20218;-80
2022/05/17 05:18:38;;;;;;;11.13;3.88;;;;;;;26.02;53.37;94893.66;5071864;28;20301;-81
2022/05/17 05:21:09;;;;;;;10.35;3.42;;;;;;;26.38;50.90;94845.41;5069814;28;20190;-81
2022/05/17 05:23:38;;;;;;;7.47;3.60;;;;;;;27.47;49.29;94912.78;5069592;28;20216;-81
2022/05/17 05:26:08;;;;;;;4.07;3.40;;;;;;;28.12;47.73;94914.06;5069784;28;20685;-80
2022/05/17 05:28:35;;;;;;;7.40;3.78;;;;;;;28.76;45.97;94911.78;5070222;28;20221;-79
2022/05/17 05:31:03;;;;;;;8.10;3.03;;;;;;;29.39;44.26;94917.44;5070399;28;20707;-80
2022/05/17 05:33:31;;;;;;;9.90;3.38;;;;;;;29.97;43.18;94913.97;5072347;28;20241;-79
2022/05/17 05:35:58;;;;;;;6.00;3.33;;;;;;;30.56;42.15;94913.00;5070525;28;20190;-81
2022/05/17 05:38:25;;;;;;;6.28;3.60;;;;;;;31.10;40.90;94914.56;5069703;28;20199;-80
2022/05/17 05:40:54;;;;;;;6.88;3.13;;;;;;;31.54;39.90;94906.19;5069743;28;20662;-79
2022/05/17 05:43:21;;;;;;;3.00;2.80;;;;;;;32.11;38.35;94915.69;5069291;28;20183;-78
2022/05/17 05:45:48;;;;;;;6.68;3.30;;;;;;;32.56;37.90;94925.41;5069144;28;20222;-81
2022/05/17 05:48:15;;;;;;;11.10;3.50;;;;;;;32.99;36.85;94922.31;5069270;28;20194;-80
2022/05/17 05:50:42;;;;;;;6.40;3.35;;;;;;;33.05;36.34;94868.25;5069534;28;20281;-80
2022/05/17 05:53:11;;;;;;;7.72;3.20;;;;;;;33.79;35.23;94914.13;5069329;28;20190;-82
2022/05/17 05:55:40;;;;;;;12.40;3.72;;;;;;;34.14;34.74;94921.81;5070010;28;20183;-80
2022/05/17 05:58:09;;;;;;;9.32;3.40;;;;;;;34.50;34.08;94923.31;5068389;28;20191;-82
2022/05/17 06:00:36;;;;;;;7.57;3.38;;;;;;;34.76;33.72;94914.00;5069469;28;20195;-81
2022/05/17 06:03:04;;;;;;;4.40;3.20;;;;;;;35.17;33.28;94927.56;5069324;28;20644;-81
2022/05/17 06:05:32;;;;;;;10.60;4.07;;;;;;;35.46;32.57;94921.31;5069509;28;20309;-80
2022/05/17 06:07:59;;;;;;;6.95;3.53;;;;;;;35.72;31.77;94919.06;5069257;28;20627;-81
2022/05/17 06:10:26;;;;;;;5.53;3.70;;;;;;;36.00;31.52;94911.97;5069580;28;20193;-80
2022/05/17 06:12:53;;;;;;;4.85;3.28;;;;;;;36.28;31.18;94917.38;5069850;28;20191;-83
2022/05/17 06:15:21;;;;;;;5.28;3.58;;;;;;;36.55;30.94;94921.94;5069304;28;20654;-80
2022/05/17 06:17:49;;;;;;;4.43;3.15;;;;;;;36.38;30.30;94850.56;5069116;28;20198;-79
2022/05/17 06:20:16;;;;;;;9.13;3.30;;;;;;;37.03;30.03;94924.19;5069634;28;20190;-81
2022/05/17 06:22:43;;;;;;;4.90;3.38;;;;;;;37.25;29.80;94918.91;5073093;28;20277;-80
2022/05/17 06:25:11;;;;;;;5.82;3.05;;;;;;;37.48;29.15;94922.44;5072845;28;20194;-80
2022/05/17 06:27:37;;;;;;;4.47;3.25;;;;;;;37.59;29.10;94907.72;5072607;28;20319;-81
2022/05/17 06:30:06;;;;;;;6.18;3.53;;;;;;;37.86;28.27;94924.75;5072978;28;20186;-82
2022/05/17 06:32:34;;;;;;;7.57;3.47;;;;;;;38.01;28.11;94926.25;5072386;28;20183;-80
2022/05/17 06:35:01;;;;;;;7.22;3.42;;;;;;;38.06;28.06;94915.44;5072849;28;20194;-82
2022/05/17 06:37:27;;;;;;;5.30;3.65;;;;;;;38.27;27.97;94932.53;5072595;28;20190;-81
2022/05/17 06:39:55;;;;;;;7.28;3.75;;;;;;;38.31;27.86;94920.16;5072397;28;20197;-81
2022/05/17 06:42:22;;;;;;;11.18;3.60;;;;;;;38.39;27.36;94899.91;5072242;28;20194;-80
2022/05/17 06:44:49;;;;;;;9.40;3.60;;;;;;;38.65;27.14;94924.06;5073175;28;20183;-79
2022/05/17 06:47:16;;;;;;;10.00;3.30;;;;;;;38.61;27.26;94896.34;5072415;28;20724;-81
2022/05/17 06:49:44;;;;;;;4.60;3.40;;;;;;;38.79;27.14;94897.22;5073158;28;20178;-80
2022/05/17 06:52:11;;;;;;;7.93;3.22;;;;;;;38.98;26.99;94907.63;5072393;28;20588;-79
2022/05/17 06:54:40;;;;;;;7.65;3.60;;;;;;;38.58;26.91;94833.59;5070336;28;20199;-80
2022/05/17 06:57:09;;;;;;;4.22;3.05;;;;;;;39.15;26.64;94907.63;5078788;28;20232;-85
2022/05/17 06:59:37;;;;;;;7.43;4.00;;;;;;;38.60;26.44;94814.56;5084736;28;20190;-79
2022/05/17 07:02:05;;;;;;;5.85;3.60;;;;;;;39.32;26.39;94904.22;5069304;28;20200;-80
2022/05/17 07:04:33;;;;;;;5.97;3.53;;;;;;;39.41;26.55;94913.03;5071242;28;20190;-80
2022/05/17 07:07:02;;;;;;;6.70;3.17;;;;;;;39.39;26.52;94899.19;5071265;28;20313;-80
2022/05/17 07:09:30;;;;;;;6.68;3.42;;;;;;;39.56;26.02;94906.44;5071666;28;20198;-79
2022/05/17 07:14:42;;;;;;;8.95;3.42;;;;;;;39.67;25.82;94902.34;5070685;28;20185;-80
2022/05/17 07:17:13;;;;;;;11.57;3.50;;;;;;;39.73;26.16;94903.75;5071487;28;20217;-79
2022/05/17 07:19:43;;;;;;;4.40;3.17;;;;;;;39.34;25.55;94830.53;5073008;28;20566;-81
2022/05/17 07:22:12;;;;;;;8.57;3.22;;;;;;;39.84;25.93;94893.47;5070916;28;20194;-80
2022/05/17 07:24:41;;;;;;;6.72;4.15;;;;;;;39.89;25.89;94895.97;5070934;28;20206;-80
2022/05/17 07:27:10;;;;;;;6.70;3.33;;;;;;;39.62;25.63;94848.91;5071510;28;20206;-83
2022/05/17 07:29:37;;;;;;;11.93;3.10;;;;;;;39.83;25.49;94879.31;5072011;28;20225;-81
2022/05/17 07:32:05;;;;;;;7.15;3.03;;;;;;;40.00;25.85;94901.81;5071312;28;20185;-81
2022/05/17 07:34:33;;;;;;;4.50;2.72;;;;;;;40.04;25.58;94889.34;5071153;28;20269;-78
2022/05/17 07:37:00;;;;;;;5.95;3.42;;;;;;;39.94;25.62;94868.25;5072645;28;20201;-77
2022/05/17 07:39:28;;;;;;;7.95;3.53;;;;;;;40.15;25.94;94892.47;5076806;28;20198;-79
2022/05/17 07:41:55;;;;;;;7.20;4.18;;;;;;;40.18;25.86;94895.31;5071967;28;20182;-80
2022/05/17 07:44:21;;;;;;;10.77;4.00;;;;;;;40.21;25.93;94891.22;5070445;28;20190;-77
2022/05/17 07:46:48;;;;;;;4.60;3.38;;;;;;;40.21;25.43;94885.84;5069754;28;20218;-79
2022/05/17 07:49:15;;;;;;;9.15;3.65;;;;;;;40.00;25.12;94845.53;5070634;28;20240;-79
2022/05/17 07:51:42;;;;;;;10.38;3.40;;;;;;;40.21;25.63;94878.59;5070518;28;20183;-78
2022/05/17 07:54:09;;;;;;;7.03;3.33;;;;;;;40.15;25.66;94873.72;5073706;28;20186;-79
2022/05/17 07:56:37;;;;;;;7.55;3.60;;;;;;;40.17;25.78;94871.53;5074349;28;20586;-78
2022/05/17 07:59:04;;;;;;;6.47;3.42;;;;;;;40.15;25.47;94873.72;5070019;28;20190;-78
2022/05/17 08:01:31;;;;;;;6.88;3.58;;;;;;;40.12;25.77;94875.16;5069969;28;20581;-80
2022/05/17 08:03:58;;;;;;;8.02;3.67;;;;;;;40.08;25.27;94866.94;5069878;28;20635;-79
2022/05/17 08:06:25;;;;;;;4.43;3.15;;;;;;;39.66;25.55;94814.28;5069354;28;20301;-79
2022/05/17 08:08:52;;;;;;;5.25;3.25;;;;;;;39.95;25.60;94867.94;5070280;28;20216;-77
2022/05/17 08:11:19;;;;;;;8.93;3.22;;;;;;;39.69;25.62;94837.75;5069259;28;20597;-79
2022/05/17 08:13:47;;;;;;;4.63;3.13;;;;;;;39.73;25.95;94860.13;5066726;28;20627;-80
2022/05/17 08:16:14;;;;;;;7.63;3.15;;;;;;;39.64;26.24;94860.91;5069977;28;20194;-80
2022/05/17 08:18:41;;;;;;;4.60;3.20;;;;;;;39.46;26.11;94843.25;5069805;28;20186;-81
2022/05/17 08:21:07;;;;;;;4.85;3.00;;;;;;;39.49;26.72;94850.66;5069674;28;20190;-80
2022/05/17 08:23:35;;;;;;;4.97;3.05;;;;;;;39.01;26.42;94786.63;5070078;28;20195;-79
2022/05/17 08:28:47;;;;;;;5.70;3.33;;;;;;;39.08;26.63;94824.41;5070370;28;20256;-78
2022/05/17 08:31:14;;;;;;;7.22;3.45;;;;;;;39.13;26.79;94843.75;5069545;28;20197;-79
2022/05/17 08:33:40;;;;;;;6.03;4.05;;;;;;;39.03;26.80;94849.41;5071659;28;20201;-78
2022/05/17 08:36:10;;;;;;;7.22;3.50;;;;;;;38.94;26.76;94845.94;5069757;28;20186;-79
2022/05/17 08:38:39;;;;;;;9.65;3.63;;;;;;;38.82;26.56;94843.91;5068732;28;20704;-79
2022/05/17 08:41:23;;;;;;;12.00;3.88;;;;;;;38.60;25.50;94830.59;5069833;28;20197;-80
2022/05/17 08:43:54;;;;;;;6.63;3.28;;;;;;;38.48;25.46;94841.91;5068330;28;20660;-79
2022/05/17 08:46:26;;;;;;;4.07;2.78;;;;;;;38.05;26.17;94796.34;5071914;28;20217;-78
2022/05/17 08:48:55;;;;;;;3.72;2.67;;;;;;;38.21;26.61;94839.44;5066918;28;20243;-79
2022/05/17 08:51:42;;;;;;;4.13;3.35;;;;;;;38.10;27.12;94841.59;5069120;28;20700;-78
2022/05/17 08:54:13;;;;;;;8.40;3.47;;;;;;;37.99;26.84;94840.28;5066848;28;20190;-78
2022/05/17 08:56:45;;;;;;;4.50;2.67;;;;;;;37.84;26.37;94841.47;5068553;28;20233;-78
2022/05/17 08:59:17;;;;;;;4.53;3.15;;;;;;;37.63;25.31;94830.50;5069514;28;20186;-78
2022/05/17 09:01:47;;;;;;;3.85;2.75;;;;;;;37.34;25.49;94820.25;5069518;28;20191;-78
2022/05/17 09:04:32;;;;;;;5.75;3.03;;;;;;;37.29;26.14;94834.50;5069036;28;20194;-79
2022/05/17 09:07:13;;;;;;;3.17;2.50;;;;;;;37.17;26.76;94823.56;5069626;28;20354;-79
2022/05/17 09:09:53;;;;;;;5.72;2.88;;;;;;;37.03;27.38;94818.28;5069378;28;20193;-79
2022/05/17 09:12:27;;;;;;;4.30;2.70;;;;;;;36.90;27.26;94819.09;5064650;28;20631;-78
2022/05/17 09:14:59;;;;;;;5.25;2.90;;;;;;;36.73;26.41;94819.75;5067428;28;20197;-78
2022/05/17 09:17:28;;;;;;;2.83;2.63;;;;;;;36.23;26.91;94766.41;5068431;28;20182;-78
2022/05/17 09:19:55;;;;;;;7.57;3.60;;;;;;;36.45;27.59;94819.00;5067349;28;20236;-80
2022/05/17 09:22:24;;;;;;;4.22;2.60;;;;;;;36.30;27.61;94816.63;5068434;28;20657;-78
2022/05/17 09:24:56;;;;;;;4.53;3.22;;;;;;;36.20;28.22;94819.50;5065833;28;20205;-80
2022/05/17 09:27:26;;;;;;;4.53;2.90;;;;;;;36.04;27.87;94813.66;5066125;28;20244;-79
2022/05/17 09:30:03;;;;;;;4.45;2.47;;;;;;;35.76;28.01;94786.22;5062472;28;20607;-78
2022/05/17 09:32:34;;;;;;;4.70;2.47;;;;;;;35.62;27.50;94789.66;5062760;28;20190;-79
2022/05/17 09:35:04;;;;;;;5.85;3.00;;;;;;;35.30;28.18;94766.47;5067781;28;20193;-79
2022/05/17 09:37:36;;;;;;;5.10;3.00;;;;;;;35.44;28.71;94796.56;5067703;28;20625;-79
2022/05/17 09:40:05;;;;;;;5.05;3.13;;;;;;;35.32;28.69;94795.44;5067466;28;20244;-78
2022/05/17 09:42:35;;;;;;;4.45;2.78;;;;;;;35.19;29.31;94796.97;5066231;28;20194;-79
2022/05/17 09:45:11;;;;;;;6.90;2.78;;;;;;;35.05;28.79;94783.63;5065754;28;20222;-77
2022/05/17 09:47:54;;;;;;;3.47;2.60;;;;;;;34.87;27.81;94779.09;5067794;28;20213;-77
2022/05/17 09:53:10;;;;;;;2.42;2.28;;;;;;;34.66;28.07;94784.69;5065386;28;20652;-77
2022/05/17 09:55:42;;;;;;;3.00;2.58;;;;;;;34.52;27.74;94780.41;5069297;28;20225;-82
2022/05/17 09:58:11;;;;;;;4.68;3.05;;;;;;;34.38;28.24;94770.44;5073145;28;20191;-81
2022/05/17 10:00:51;;;;;;;3.75;2.35;;;;;;;34.02;28.81;94732.91;5071708;28;20198;-79
2022/05/17 10:03:29;;;;;;;3.00;2.50;;;;;;;34.04;28.60;94753.91;5074294;28;20182;-82
2022/05/17 10:05:59;;;;;;;3.03;2.50;;;;;;;33.78;28.68;94729.50;5073351;28;20205;-82
2022/05/17 10:08:42;;;;;;;2.42;2.22;;;;;;;33.94;27.88;94768.06;5074007;28;20206;-80
2022/05/17 10:11:21;;;;;;;3.75;2.30;;;;;;;33.81;27.89;94763.41;5075502;28;20301;-80
2022/05/17 10:14:09;;;;;;;2.17;2.03;;;;;;;33.70;28.11;94762.72;5074808;28;20190;-78
2022/05/17 10:16:42;;;;;;;3.45;2.45;;;;;;;32.92;28.22;94655.03;5077456;28;20807;-82
2022/05/17 10:19:18;;;;;;;2.70;2.50;;;;;;;33.51;28.71;94756.53;5077731;28;20194;-83
2022/05/17 10:21:49;;;;;;;3.50;2.20;;;;;;;33.43;28.45;94747.31;5078020;28;20217;-81
2022/05/17 10:24:22;;;;;;;3.53;2.28;;;;;;;33.35;28.18;94750.59;5076901;28;20194;-80
2022/05/17 10:26:54;;;;;;;4.43;2.72;;;;;;;33.11;28.07;94727.44;5074404;28;20214;-82
2022/05/17 10:29:29;;;;;;;5.57;2.55;;;;;;;33.16;28.41;94745.97;5076229;28;20209;-81
2022/05/17 10:32:02;;;;;;;3.88;2.58;;;;;;;33.11;29.26;94747.84;5076961;28;20190;-82
2022/05/17 10:34:45;;;;;;;6.72;2.30;;;;;;;32.43;28.74;94656.72;5081390;28;20194;-82
2022/05/17 10:37:15;;;;;;;6.72;2.20;;;;;;;32.95;29.73;94737.41;5070843;28;20673;-80
2022/05/17 10:39:51;;;;;;;4.95;2.30;;;;;;;32.68;29.94;94697.28;5069550;28;20194;-81
2022/05/17 10:42:18;;;;;;;3.05;2.22;;;;;;;32.83;29.13;94730.84;5072022;28;20193;-80
2022/05/17 10:44:50;;;;;;;3.25;2.40;;;;;;;32.76;29.03;94725.84;5072725;28;20190;-79
2022/05/17 10:47:33;;;;;;;3.58;2.75;;;;;;;32.70;29.54;94724.31;5071249;28;20214;-81
2022/05/17 10:50:12;;;;;;;3.58;2.60;;;;;;;32.34;29.13;94673.41;5070030;28;20212;-81
2022/05/17 10:52:52;;;;;;;4.47;2.80;;;;;;;31.59;29.85;94567.72;5071729;28;20210;-82
2022/05/17 10:55:24;;;;;;;2.40;2.20;;;;;;;32.51;30.20;94713.56;5071378;28;20197;-80
2022/05/17 10:57:58;;;;;;;2.80;2.03;;;;;;;32.05;30.35;94650.31;5070975;28;20663;-79
2022/05/17 11:00:33;;;;;;;2.47;2.08;;;;;;;32.38;30.37;94693.78;5069366;28;20198;-77
2022/05/17 11:03:21;;;;;;;2.80;2.47;;;;;;;32.06;29.73;94662.47;5071054;28;20216;-79
2022/05/17 11:06:02;;;;;;;2.72;2.25;;;;;;;32.26;29.40;94698.63;5069960;28;20199;-78
2022/05/17 11:08:41;;;;;;;2.65;2.30;;;;;;;32.14;30.14;94684.91;5072735;28;20234;-79
2022/05/17 11:11:25;;;;;;;2.58;2.00;;;;;;;32.14;29.39;94687.56;5073025;28;20202;-77
2022/05/17 11:13:56;;;;;;;3.95;2.25;;;;;;;32.08;30.58;94686.00;5072541;28;20193;-79
2022/05/17 11:16:30;;;;;;;4.50;2.50;;;;;;;32.02;30.88;94674.66;5074315;28;20193;-77
2022/05/17 11:19:04;;;;;;;3.00;2.30;;;;;;;31.39;30.65;94584.47;5075284;28;20185;-82
2022/05/17 11:21:36;;;;;;;2.20;1.95;;;;;;;31.73;31.06;94640.09;5071993;28;20244;-79
2022/05/17 11:24:15;;;;;;;2.40;2.20;;;;;;;31.66;31.15;94635.13;5070893;28;20190;-79
2022/05/17 11:27:06;;;;;;;3.92;2.33;;;;;;;31.83;30.87;94663.09;5070952;28;20186;-76
2022/05/17 11:30:11;;;;;;;2.70;2.35;;;;;;;31.76;31.12;94652.78;5070704;28;20217;-82
2022/05/17 11:32:42;;;;;;;2.88;2.50;;;;;;;31.71;30.60;94658.09;5069051;28;20298;-79
2022/05/17 11:35:38;;;;;;;6.57;2.30;;;;;;;31.65;30.90;94645.94;5071289;28;20673;-79
2022/05/17 11:38:07;;;;;;;2.30;1.90;;;;;;;31.60;31.12;94653.91;5070610;28;20194;-80
2022/05/17 11:40:58;;;;;;;3.67;2.97;;;;;;;31.40;30.10;94623.84;5070864;28;20198;-81
2022/05/17 11:43:47;;;;;;;3.08;2.45;;;;;;;31.07;31.44;94576.88;5071385;28;20193;-86
2022/05/17 11:46:50;;;;;;;2.55;2.35;;;;;;;31.44;31.19;94634.69;5070389;28;20680;-83
2022/05/17 11:49:46;;;;;;;2.97;2.20;;;;;;;31.39;31.02;94637.31;5068953;28;20230;-82
2022/05/17 11:52:31;;;;;;;3.83;2.08;;;;;;;31.20;30.66;94608.81;5070479;28;20240;-82